createdAt,value
2022-09-17T00:00:42.700Z,93410.72
2022-09-17T00:01:45.488Z,93411.03
2022-09-17T00:02:49.803Z,93416.16
2022-09-17T00:03:52.373Z,93414.16
2022-09-17T00:04:53.753Z,93411.28
2022-09-17T00:05:59.779Z,93417.72
2022-09-17T00:07:01.324Z,93413.53
2022-09-17T00:08:03.193Z,93411.28
2022-09-17T00:09:06.374Z,93411.66
2022-09-17T00:10:08.352Z,93411.22
2022-09-17T00:11:11.356Z,93409.91
2022-09-17T00:12:12.906Z,93409.19
2022-09-17T00:13:14.696Z,93410.22
2022-09-17T00:14:17.618Z,93406.56
2022-09-17T00:15:21.143Z,93409.41
2022-09-17T00:16:26.593Z,93404.16
2022-09-17T00:17:29.394Z,93408.75
2022-09-17T00:18:30.844Z,93408.69
2022-09-17T00:19:32.244Z,93414.03
2022-09-17T00:20:38.529Z,93414.59
2022-09-17T00:21:40.879Z,93408.19
2022-09-17T00:22:42.365Z,93415.25
2022-09-17T00:23:44.143Z,93419.13
2022-09-17T00:24:45.577Z,93412.34
2022-09-17T00:25:46.992Z,93415.44
2022-09-17T00:26:49.216Z,93416.50
2022-09-17T00:27:50.648Z,93414.44
2022-09-17T00:28:53.557Z,93421.31
2022-09-17T00:29:54.980Z,93417.97
2022-09-17T00:30:56.488Z,93419.06
2022-09-17T00:31:57.975Z,93412.81
2022-09-17T00:33:00.991Z,93418.69
2022-09-17T00:34:04.252Z,93419.94
2022-09-17T00:35:06.890Z,93415.78
2022-09-17T00:36:08.486Z,93419.25
2022-09-17T00:37:09.915Z,93417.16
2022-09-17T00:38:11.668Z,93421.25
2022-09-17T00:39:13.324Z,93417.97
2022-09-17T00:40:14.914Z,93421.50
2022-09-17T00:41:16.555Z,93426.31
2022-09-17T00:42:19.486Z,93417.16
2022-09-17T00:43:42.312Z,93422.41
2022-09-17T00:44:50.572Z,93420.88
2022-09-17T00:45:52.040Z,93423.50
2022-09-17T00:46:53.548Z,93418.41
2022-09-17T00:47:57.722Z,93425.56
2022-09-17T00:49:03.013Z,93419.50
2022-09-17T00:50:07.517Z,93421.50
2022-09-17T00:51:12.205Z,93428.13
2022-09-17T00:52:18.199Z,93425.63
2022-09-17T00:53:22.535Z,93424.59
2022-09-17T00:54:24.713Z,93416.53
2022-09-17T00:55:30.333Z,93422.97
2022-09-17T00:56:33.820Z,93423.34
2022-09-17T00:57:35.900Z,93418.63
2022-09-17T00:58:41.237Z,93423.88
2022-09-17T00:59:43.047Z,93429.03
2022-09-17T01:00:44.716Z,93427.59
2022-09-17T01:01:46.201Z,93420.38
2022-09-17T01:02:47.747Z,93429.59
2022-09-17T01:03:49.204Z,93429.94
2022-09-17T01:04:51.985Z,93435.41
2022-09-17T01:06:02.376Z,93436.84
2022-09-17T01:07:11.667Z,93434.59
2022-09-17T01:08:28.764Z,93435.69
2022-09-17T01:09:43.295Z,93436.75
2022-09-17T01:11:02.992Z,93428.06
2022-09-17T01:12:21.171Z,93422.63
2022-09-17T01:13:31.684Z,93431.41
2022-09-17T01:14:55.725Z,93439.03
2022-09-17T01:16:05.441Z,93429.50
2022-09-17T01:17:14.929Z,93432.69
2022-09-17T01:18:28.472Z,93436.41
2022-09-17T01:19:55.920Z,93432.69
2022-09-17T01:21:34.824Z,93430.50
2022-09-17T01:22:50.449Z,93427.53
2022-09-17T01:24:24.111Z,93435.56
2022-09-17T01:25:33.532Z,93440.44
2022-09-17T01:27:00.120Z,93437.00
2022-09-17T01:28:27.108Z,93430.94
2022-09-17T01:29:48.566Z,93438.84
2022-09-17T01:31:07.152Z,93435.31
2022-09-17T01:32:12.673Z,93436.13
2022-09-17T01:33:20.430Z,93429.53
2022-09-17T01:34:30.441Z,93431.16
2022-09-17T01:35:35.954Z,93435.69
2022-09-17T01:36:47.166Z,93435.59
2022-09-17T01:37:57.910Z,93437.31
2022-09-17T01:39:06.141Z,93440.03
2022-09-17T01:40:12.274Z,93435.59
2022-09-17T01:41:27.098Z,93440.47
2022-09-17T01:42:37.635Z,93435.69
2022-09-17T01:43:46.518Z,93443.91
2022-09-17T01:44:55.928Z,93441.09
2022-09-17T01:46:04.711Z,93442.81
2022-09-17T01:47:11.696Z,93443.00
2022-09-17T01:48:16.630Z,93440.66
2022-09-17T01:49:21.837Z,93441.28
2022-09-17T01:50:27.254Z,93443.28
2022-09-17T01:51:35.560Z,93449.41
2022-09-17T01:52:39.762Z,93447.59
2022-09-17T01:53:45.905Z,93445.72
2022-09-17T01:54:51.077Z,93454.59
2022-09-17T01:55:56.940Z,93449.53
2022-09-17T01:57:01.649Z,93448.88
2022-09-17T01:58:08.009Z,93445.91
2022-09-17T01:59:15.720Z,93451.78
2022-09-17T02:00:17.837Z,93444.00
2022-09-17T02:01:24.661Z,93447.66
2022-09-17T02:02:29.133Z,93440.72
2022-09-17T02:03:35.334Z,93441.91
2022-09-17T02:04:41.522Z,93440.00
2022-09-17T02:05:47.903Z,93438.84
2022-09-17T02:06:57.379Z,93429.63
2022-09-17T02:08:06.457Z,93431.69
2022-09-17T02:09:15.597Z,93434.06
2022-09-17T02:10:20.395Z,93428.81
2022-09-17T02:11:22.687Z,93432.69
2022-09-17T02:12:31.585Z,93435.31
2022-09-17T02:13:38.369Z,93434.31
2022-09-17T02:14:46.854Z,93432.59
2022-09-17T02:15:55.457Z,93435.03
2022-09-17T02:17:03.197Z,93425.25
2022-09-17T02:18:08.670Z,93437.56
2022-09-17T02:19:16.600Z,93427.44
2022-09-17T02:20:23.154Z,93431.44
2022-09-17T02:21:35.741Z,93434.69
2022-09-17T02:22:41.885Z,93439.84
2022-09-17T02:23:47.684Z,93433.97
2022-09-17T02:25:00.025Z,93429.09
2022-09-17T02:26:07.128Z,93429.63
2022-09-17T02:27:15.677Z,93432.97
2022-09-17T02:28:23.392Z,93432.16
2022-09-17T02:29:34.587Z,93427.72
2022-09-17T02:30:36.056Z,93426.63
2022-09-17T02:31:37.697Z,93428.91
2022-09-17T02:32:41.074Z,93437.22
2022-09-17T02:33:48.204Z,93431.44
2022-09-17T02:34:49.594Z,93429.97
2022-09-17T02:35:51.124Z,93428.69
2022-09-17T02:36:52.560Z,93429.25
2022-09-17T02:37:53.939Z,93430.97
2022-09-17T02:38:59.391Z,93431.72
2022-09-17T02:40:01.343Z,93425.91
2022-09-17T02:41:13.200Z,93418.03
2022-09-17T02:42:23.322Z,93417.38
2022-09-17T02:43:34.701Z,93421.31
2022-09-17T02:44:45.240Z,93424.28
2022-09-17T02:46:00.200Z,93418.75
2022-09-17T02:47:18.441Z,93413.06
2022-09-17T02:48:41.729Z,93413.06
2022-09-17T02:49:57.691Z,93415.03
2022-09-17T02:51:11.609Z,93410.25
2022-09-17T02:52:23.799Z,93411.06
2022-09-17T02:53:35.990Z,93410.06
2022-09-17T02:54:44.762Z,93413.50
2022-09-17T02:55:52.515Z,93422.38
2022-09-17T02:57:05.013Z,93414.06
2022-09-17T02:58:17.243Z,93418.31
2022-09-17T02:59:24.588Z,93419.31
2022-09-17T03:00:26.092Z,93420.13
2022-09-17T03:01:32.942Z,93416.41
2022-09-17T03:02:40.784Z,93430.53
2022-09-17T03:03:45.828Z,93420.13
2022-09-17T03:04:49.391Z,93422.31
2022-09-17T03:05:51.423Z,93426.63
2022-09-17T03:06:53.275Z,93424.66
2022-09-17T03:07:55.334Z,93422.31
2022-09-17T03:08:56.736Z,93423.38
2022-09-17T03:09:58.143Z,93428.16
2022-09-17T03:10:59.587Z,93417.38
2022-09-17T03:12:01.384Z,93425.91
2022-09-17T03:13:02.825Z,93422.09
2022-09-17T03:14:04.312Z,93427.59
2022-09-17T03:15:06.511Z,93423.72
2022-09-17T03:16:08.323Z,93430.59
2022-09-17T03:17:10.456Z,93426.63
2022-09-17T03:18:14.403Z,93425.53
2022-09-17T03:19:17.159Z,93421.53
2022-09-17T03:20:18.607Z,93426.25
2022-09-17T03:21:19.990Z,93416.56
2022-09-17T03:22:21.553Z,93418.72
2022-09-17T03:23:23.014Z,93417.81
2022-09-17T03:24:24.746Z,93425.03
2022-09-17T03:25:26.140Z,93428.78
2022-09-17T03:26:27.538Z,93426.66
2022-09-17T03:27:28.944Z,93432.63
2022-09-17T03:28:30.374Z,93428.03
2022-09-17T03:29:31.805Z,93429.66
2022-09-17T03:30:33.303Z,93431.25
2022-09-17T03:31:34.921Z,93429.22
2022-09-17T03:32:36.387Z,93430.03
2022-09-17T03:33:37.805Z,93428.69
2022-09-17T03:34:40.568Z,93434.25
2022-09-17T03:35:42.834Z,93433.44
2022-09-17T03:36:44.340Z,93433.44
2022-09-17T03:37:45.779Z,93438.19
2022-09-17T03:38:47.201Z,93440.28
2022-09-17T03:39:48.679Z,93434.50
2022-09-17T03:40:59.893Z,93435.84
2022-09-17T03:42:01.556Z,93439.63
2022-09-17T03:43:03.081Z,93437.81
2022-09-17T03:44:04.728Z,93436.13
2022-09-17T03:45:07.576Z,93443.19
2022-09-17T03:46:09.014Z,93439.84
2022-09-17T03:47:10.474Z,93435.84
2022-09-17T03:48:11.857Z,93438.22
2022-09-17T03:49:13.353Z,93434.59
2022-09-17T03:50:16.332Z,93429.63
2022-09-17T03:51:17.851Z,93429.16
2022-09-17T03:52:19.297Z,93436.66
2022-09-17T03:53:20.781Z,93434.59
2022-09-17T03:54:22.364Z,93432.06
2022-09-17T03:55:23.759Z,93433.41
2022-09-17T03:56:25.200Z,93432.75
2022-09-17T03:57:26.612Z,93439.31
2022-09-17T03:58:28.505Z,93432.97
2022-09-17T03:59:29.918Z,93443.25
2022-09-17T04:00:31.631Z,93438.09
2022-09-17T04:01:33.127Z,93448.16
2022-09-17T04:02:34.772Z,93446.53
2022-09-17T04:03:36.197Z,93444.91
2022-09-17T04:04:37.587Z,93450.31
2022-09-17T04:05:40.338Z,93442.81
2022-09-17T04:06:41.746Z,93442.91
2022-09-17T04:07:43.157Z,93445.47
2022-09-17T04:08:44.604Z,93439.94
2022-09-17T04:09:45.999Z,93440.59
2022-09-17T04:10:47.903Z,93433.53
2022-09-17T04:11:49.409Z,93435.84
2022-09-17T04:12:51.107Z,93431.16
2022-09-17T04:13:52.494Z,93436.50
2022-09-17T04:14:53.910Z,93428.28
2022-09-17T04:15:55.374Z,93427.34
2022-09-17T04:16:58.682Z,93421.94
2022-09-17T04:18:00.066Z,93419.41
2022-09-17T04:19:01.470Z,93420.47
2022-09-17T04:20:03.727Z,93427.97
2022-09-17T04:21:06.600Z,93428.06
2022-09-17T04:22:08.030Z,93435.94
2022-09-17T04:23:10.940Z,93426.97
2022-09-17T04:24:12.363Z,93427.16
2022-09-17T04:25:13.970Z,93429.16
2022-09-17T04:26:15.386Z,93430.75
2022-09-17T04:27:16.835Z,93426.22
2022-09-17T04:28:18.215Z,93433.22
2022-09-17T04:29:19.633Z,93427.69
2022-09-17T04:30:21.081Z,93428.59
2022-09-17T04:31:22.626Z,93431.69
2022-09-17T04:32:24.135Z,93432.16
2022-09-17T04:33:25.745Z,93433.78
2022-09-17T04:34:27.176Z,93439.00
2022-09-17T04:35:28.666Z,93436.09
2022-09-17T04:36:31.397Z,93431.75
2022-09-17T04:37:32.791Z,93434.22
2022-09-17T04:38:34.197Z,93440.38
2022-09-17T04:39:35.592Z,93444.41
2022-09-17T04:40:37.109Z,93443.63
2022-09-17T04:41:38.625Z,93448.31
2022-09-17T04:42:40.026Z,93445.78
2022-09-17T04:43:41.399Z,93447.41
2022-09-17T04:44:42.812Z,93448.66
2022-09-17T04:45:45.891Z,93448.97
2022-09-17T04:46:47.405Z,93449.31
2022-09-17T04:47:49.116Z,93440.00
2022-09-17T04:48:50.524Z,93442.50
2022-09-17T04:49:52.018Z,93436.91
2022-09-17T04:50:53.418Z,93441.44
2022-09-17T04:51:56.203Z,93433.22
2022-09-17T04:52:57.607Z,93436.84
2022-09-17T04:53:59.052Z,93438.56
2022-09-17T04:55:00.472Z,93435.84
2022-09-17T04:56:02.322Z,93448.03
2022-09-17T04:57:04.077Z,93444.06
2022-09-17T04:58:05.723Z,93442.59
2022-09-17T04:59:07.321Z,93448.31
2022-09-17T05:00:10.818Z,93450.47
2022-09-17T05:01:12.317Z,93455.56
2022-09-17T05:02:14.418Z,93446.22
2022-09-17T05:03:15.983Z,93448.97
2022-09-17T05:04:17.451Z,93448.56
2022-09-17T05:05:19.961Z,93448.91
2022-09-17T05:06:21.358Z,93453.44
2022-09-17T05:07:24.184Z,93448.91
2022-09-17T05:08:25.592Z,93454.16
2022-09-17T05:09:27.018Z,93449.09
2022-09-17T05:10:28.461Z,93458.06
2022-09-17T05:11:29.908Z,93463.53
2022-09-17T05:12:34.464Z,93463.38
2022-09-17T05:13:36.097Z,93462.94
2022-09-17T05:14:37.482Z,93457.94
2022-09-17T05:15:38.922Z,93464.53
2022-09-17T05:16:40.301Z,93459.84
2022-09-17T05:17:41.742Z,93461.91
2022-09-17T05:18:43.183Z,93456.97
2022-09-17T05:19:44.564Z,93462.84
2022-09-17T05:20:45.967Z,93462.38
2022-09-17T05:21:47.367Z,93460.31
2022-09-17T05:22:51.750Z,93456.22
2022-09-17T05:23:53.155Z,93452.91
2022-09-17T05:24:54.590Z,93458.38
2022-09-17T05:25:58.205Z,93468.16
2022-09-17T05:26:59.603Z,93461.91
2022-09-17T05:28:01.368Z,93463.53
2022-09-17T05:29:02.978Z,93462.13
2022-09-17T05:30:05.537Z,93462.38
2022-09-17T05:31:07.226Z,93466.28
2022-09-17T05:32:08.663Z,93461.75
2022-09-17T05:33:10.096Z,93463.38
2022-09-17T05:34:11.517Z,93459.66
2022-09-17T05:35:13.013Z,93465.47
2022-09-17T05:36:14.421Z,93459.31
2022-09-17T05:37:15.812Z,93461.03
2022-09-17T05:38:18.671Z,93458.69
2022-09-17T05:39:20.180Z,93467.81
2022-09-17T05:40:21.681Z,93467.25
2022-09-17T05:41:23.129Z,93472.72
2022-09-17T05:42:24.528Z,93473.31
2022-09-17T05:43:25.929Z,93474.69
2022-09-17T05:44:27.310Z,93470.09
2022-09-17T05:45:29.487Z,93467.00
2022-09-17T05:46:30.984Z,93463.19
2022-09-17T05:47:32.376Z,93473.31
2022-09-17T05:48:34.019Z,93474.63
2022-09-17T05:49:35.458Z,93478.75
2022-09-17T05:50:36.916Z,93475.31
2022-09-17T05:51:38.475Z,93479.81
2022-09-17T05:52:39.874Z,93478.91
2022-09-17T05:53:42.635Z,93487.38
2022-09-17T05:54:44.036Z,93486.72
2022-09-17T05:55:45.466Z,93484.56
2022-09-17T05:56:46.903Z,93485.72
2022-09-17T05:57:48.425Z,93489.88
2022-09-17T05:58:49.918Z,93489.16
2022-09-17T05:59:51.392Z,93495.41
2022-09-17T06:00:53.301Z,93497.97
2022-09-17T06:01:54.762Z,93489.50
2022-09-17T06:02:57.251Z,93490.81
2022-09-17T06:03:58.698Z,93501.66
2022-09-17T06:05:00.104Z,93496.63
2022-09-17T06:06:01.505Z,93502.16
2022-09-17T06:07:04.721Z,93497.81
2022-09-17T06:08:06.510Z,93499.00
2022-09-17T06:09:09.864Z,93495.25
2022-09-17T06:10:11.261Z,93490.81
2022-09-17T06:11:12.788Z,93499.06
2022-09-17T06:12:14.232Z,93499.19
2022-09-17T06:13:16.048Z,93505.69
2022-09-17T06:14:17.464Z,93509.94
2022-09-17T06:15:18.848Z,93513.38
2022-09-17T06:16:21.052Z,93516.25
2022-09-17T06:17:22.511Z,93517.34
2022-09-17T06:18:23.965Z,93515.28
2022-09-17T06:19:25.380Z,93514.63
2022-09-17T06:20:26.823Z,93516.28
2022-09-17T06:21:28.260Z,93527.28
2022-09-17T06:22:29.659Z,93522.91
2022-09-17T06:23:32.682Z,93523.97
2022-09-17T06:24:35.410Z,93527.44
2022-09-17T06:25:36.823Z,93529.47
2022-09-17T06:26:38.222Z,93533.53
2022-09-17T06:27:39.803Z,93533.28
2022-09-17T06:28:41.982Z,93539.59
2022-09-17T06:29:43.507Z,93539.59
2022-09-17T06:30:44.915Z,93544.97
2022-09-17T06:31:47.854Z,93541.16
2022-09-17T06:32:49.290Z,93546.50
2022-09-17T06:33:50.707Z,93536.84
2022-09-17T06:34:52.120Z,93545.66
2022-09-17T06:35:56.682Z,93539.03
2022-09-17T06:36:58.074Z,93542.44
2022-09-17T06:37:59.475Z,93549.88
2022-09-17T06:39:01.133Z,93541.09
2022-09-17T06:40:04.331Z,93531.50
2022-09-17T06:41:05.885Z,93532.53
2022-09-17T06:42:07.444Z,93531.16
2022-09-17T06:43:08.823Z,93544.28
2022-09-17T06:44:10.233Z,93525.09
2022-09-17T06:45:16.381Z,93535.78
2022-09-17T06:46:18.255Z,93534.44
2022-09-17T06:47:20.259Z,93528.59
2022-09-17T06:48:22.543Z,93534.50
2022-09-17T06:49:24.005Z,93531.59
2022-09-17T06:50:25.605Z,93537.47
2022-09-17T06:51:27.066Z,93530.50
2022-09-17T06:52:28.480Z,93533.13
2022-09-17T06:53:30.408Z,93540.19
2022-09-17T06:54:31.939Z,93548.44
2022-09-17T06:55:35.472Z,93544.47
2022-09-17T06:56:36.843Z,93548.09
2022-09-17T06:57:38.219Z,93547.94
2022-09-17T06:58:39.624Z,93546.03
2022-09-17T06:59:41.011Z,93544.22
2022-09-17T07:00:42.501Z,93547.09
2022-09-17T07:01:43.997Z,93543.69
2022-09-17T07:02:55.346Z,93547.81
2022-09-17T07:03:56.781Z,93554.63
2022-09-17T07:04:58.178Z,93548.28
2022-09-17T07:06:00.065Z,93546.84
2022-09-17T07:07:01.499Z,93540.78
2022-09-17T07:08:03.839Z,93545.03
2022-09-17T07:09:09.096Z,93544.31
2022-09-17T07:10:12.209Z,93549.38
2022-09-17T07:11:15.019Z,93552.09
2022-09-17T07:12:16.419Z,93553.44
2022-09-17T07:13:17.812Z,93561.59
2022-09-17T07:14:19.224Z,93557.25
2022-09-17T07:15:20.650Z,93563.78
2022-09-17T07:16:22.134Z,93557.59
2022-09-17T07:17:23.588Z,93560.97
2022-09-17T07:18:25.731Z,93556.34
2022-09-17T07:19:27.145Z,93558.34
2022-09-17T07:20:28.527Z,93559.34
2022-09-17T07:21:30.017Z,93568.66
2022-09-17T07:22:31.406Z,93559.78
2022-09-17T07:23:34.294Z,93570.41
2022-09-17T07:24:35.670Z,93566.13
2022-09-17T07:25:37.092Z,93560.81
2022-09-17T07:26:39.923Z,93566.50
2022-09-17T07:27:41.320Z,93565.22
2022-09-17T07:28:43.657Z,93573.03
2022-09-17T07:29:45.071Z,93562.06
2022-09-17T07:30:46.719Z,93567.41
2022-09-17T07:31:48.132Z,93564.66
2022-09-17T07:32:49.539Z,93579.53
2022-09-17T07:33:50.973Z,93574.63
2022-09-17T07:34:52.361Z,93580.69
2022-09-17T07:35:54.380Z,93570.19
2022-09-17T07:36:55.802Z,93573.38
2022-09-17T07:37:57.213Z,93567.47
2022-09-17T07:38:58.630Z,93570.13
2022-09-17T07:40:00.120Z,93582.81
2022-09-17T07:41:03.521Z,93574.00
2022-09-17T07:42:06.586Z,93576.47
2022-09-17T07:43:07.975Z,93581.19
2022-09-17T07:44:09.385Z,93577.25
2022-09-17T07:45:10.952Z,93567.41
2022-09-17T07:46:14.953Z,93576.38
2022-09-17T07:47:16.412Z,93567.28
2022-09-17T07:48:17.789Z,93582.44
2022-09-17T07:49:19.187Z,93580.44
2022-09-17T07:50:20.580Z,93584.16
2022-09-17T07:51:24.118Z,93586.06
2022-09-17T07:52:25.480Z,93578.56
2022-09-17T07:53:27.441Z,93583.63
2022-09-17T07:54:29.064Z,93578.72
2022-09-17T07:55:30.514Z,93582.03
2022-09-17T07:56:31.910Z,93583.63
2022-09-17T07:57:34.678Z,93582.31
2022-09-17T07:58:36.114Z,93579.16
2022-09-17T07:59:37.495Z,93577.44
2022-09-17T08:00:38.921Z,93576.34
2022-09-17T08:01:40.459Z,93580.34
2022-09-17T08:02:42.088Z,93592.94
2022-09-17T08:03:48.663Z,93582.34
2022-09-17T08:04:50.044Z,93584.81
2022-09-17T08:05:51.438Z,93598.09
2022-09-17T08:06:52.891Z,93581.81
2022-09-17T08:07:55.423Z,93586.25
2022-09-17T08:08:58.128Z,93589.50
2022-09-17T08:09:59.504Z,93590.78
2022-09-17T08:11:01.592Z,93582.53
2022-09-17T08:12:03.065Z,93585.50
2022-09-17T08:13:06.543Z,93591.31
2022-09-17T08:14:10.681Z,93588.94
2022-09-17T08:15:12.086Z,93587.97
2022-09-17T08:16:13.562Z,93590.31
2022-09-17T08:17:15.109Z,93591.84
2022-09-17T08:18:16.554Z,93588.06
2022-09-17T08:19:17.954Z,93590.22
2022-09-17T08:20:19.418Z,93589.31
2022-09-17T08:21:21.238Z,93586.50
2022-09-17T08:22:22.654Z,93588.63
2022-09-17T08:23:24.733Z,93585.06
2022-09-17T08:24:26.460Z,93590.78
2022-09-17T08:25:27.894Z,93583.47
2022-09-17T08:26:29.331Z,93585.75
2022-09-17T08:27:31.318Z,93582.81
2022-09-17T08:28:35.071Z,93579.03
2022-09-17T08:29:36.457Z,93579.31
2022-09-17T08:30:37.869Z,93585.25
2022-09-17T08:31:39.516Z,93583.34
2022-09-17T08:32:40.946Z,93587.03
2022-09-17T08:33:43.210Z,93578.41
2022-09-17T08:34:44.587Z,93588.22
2022-09-17T08:35:51.149Z,93587.47
2022-09-17T08:36:52.611Z,93590.28
2022-09-17T08:37:54.579Z,93588.22
2022-09-17T08:38:56.253Z,93585.22
2022-09-17T08:39:57.947Z,93595.19
2022-09-17T08:41:17.281Z,93590.56
2022-09-17T08:42:26.530Z,93590.31
2022-09-17T08:43:30.484Z,93589.31
2022-09-17T08:44:41.195Z,93590.69
2022-09-17T08:45:42.876Z,93596.47
2022-09-17T08:46:47.522Z,93595.94
2022-09-17T08:47:49.795Z,93600.03
2022-09-17T08:49:01.436Z,93599.53
2022-09-17T08:50:06.163Z,93603.72
2022-09-17T08:51:21.824Z,93604.19
2022-09-17T08:53:05.054Z,93609.44
2022-09-17T08:54:16.196Z,93607.34
2022-09-17T08:55:28.387Z,93614.59
2022-09-17T08:56:34.001Z,93611.69
2022-09-17T08:57:44.079Z,93609.59
2022-09-17T08:59:08.653Z,93618.59
2022-09-17T09:00:13.562Z,93619.56
2022-09-17T09:01:25.400Z,93619.56
2022-09-17T09:02:40.489Z,93616.56
2022-09-17T09:03:56.592Z,93623.09
2022-09-17T09:05:02.662Z,93615.50
2022-09-17T09:06:08.572Z,93618.47
2022-09-17T09:07:16.584Z,93610.84
2022-09-17T09:08:33.805Z,93619.09
2022-09-17T09:09:39.798Z,93616.59
2022-09-17T09:10:48.203Z,93614.06
2022-09-17T09:12:00.823Z,93613.88
2022-09-17T09:13:04.201Z,93613.78
2022-09-17T09:14:13.806Z,93615.13
2022-09-17T09:15:28.576Z,93618.84
2022-09-17T09:16:33.771Z,93600.91
2022-09-17T09:17:45.339Z,93611.16
2022-09-17T09:18:49.668Z,93611.59
2022-09-17T09:19:51.175Z,93609.06
2022-09-17T09:20:54.655Z,93605.53
2022-09-17T09:22:03.444Z,93604.63
2022-09-17T09:23:13.012Z,93610.22
2022-09-17T09:24:22.853Z,93607.78
2022-09-17T09:25:26.698Z,93613.44
2022-09-17T09:26:42.388Z,93616.31
2022-09-17T09:27:54.555Z,93601.84
2022-09-17T09:29:13.072Z,93611.97
2022-09-17T09:30:16.293Z,93609.78
2022-09-17T09:31:34.536Z,93602.34
2022-09-17T09:32:50.477Z,93609.31
2022-09-17T09:33:52.192Z,93607.13
2022-09-17T09:34:55.672Z,93609.34
2022-09-17T09:35:57.090Z,93607.47
2022-09-17T09:37:09.965Z,93611.53
2022-09-17T09:38:22.464Z,93611.66
2022-09-17T09:39:29.225Z,93618.34
2022-09-17T09:40:36.677Z,93613.00
2022-09-17T09:41:43.499Z,93615.53
2022-09-17T09:42:46.140Z,93619.78
2022-09-17T09:44:05.359Z,93623.16
2022-09-17T09:45:14.989Z,93627.84
2022-09-17T09:46:34.865Z,93621.03
2022-09-17T09:47:54.784Z,93631.06
2022-09-17T09:49:07.624Z,93624.63
2022-09-17T09:50:24.301Z,93629.91
2022-09-17T09:51:36.175Z,93633.72
2022-09-17T09:52:50.964Z,93631.63
2022-09-17T09:54:08.530Z,93635.69
2022-09-17T09:55:39.715Z,93645.38
2022-09-17T09:56:53.561Z,93638.66
2022-09-17T09:58:03.011Z,93641.69
2022-09-17T09:59:07.413Z,93638.44
2022-09-17T10:00:29.242Z,93644.13
2022-09-17T10:01:33.849Z,93643.34
2022-09-17T10:02:35.547Z,93639.25
2022-09-17T10:03:40.122Z,93640.16
2022-09-17T10:04:41.525Z,93640.69
2022-09-17T10:05:56.808Z,93647.81
2022-09-17T10:07:02.564Z,93639.56
2022-09-17T10:08:11.613Z,93639.47
2022-09-17T10:09:14.949Z,93635.50
2022-09-17T10:10:16.352Z,93642.16
2022-09-17T10:11:21.548Z,93643.16
2022-09-17T10:12:22.962Z,93644.19
2022-09-17T10:13:25.565Z,93633.75
2022-09-17T10:14:28.805Z,93643.34
2022-09-17T10:15:30.181Z,93631.56
2022-09-17T10:16:33.004Z,93634.41
2022-09-17T10:17:34.547Z,93634.22
2022-09-17T10:18:35.931Z,93635.22
2022-09-17T10:19:37.416Z,93633.50
2022-09-17T10:20:49.322Z,93641.72
2022-09-17T10:21:51.340Z,93647.38
2022-09-17T10:22:52.815Z,93645.06
2022-09-17T10:23:54.446Z,93641.97
2022-09-17T10:24:59.095Z,93640.25
2022-09-17T10:26:00.642Z,93638.13
2022-09-17T10:27:05.581Z,93634.72
2022-09-17T10:28:29.311Z,93634.69
2022-09-17T10:29:31.543Z,93635.03
2022-09-17T10:30:34.807Z,93630.53
2022-09-17T10:31:48.542Z,93636.22
2022-09-17T10:33:15.980Z,93624.94
2022-09-17T10:34:22.218Z,93637.03
2022-09-17T10:35:27.593Z,93625.69
2022-09-17T10:36:47.072Z,93626.44
2022-09-17T10:37:50.334Z,93629.59
2022-09-17T10:38:51.742Z,93616.56
2022-09-17T10:39:53.189Z,93617.78
2022-09-17T10:41:09.427Z,93616.31
2022-09-17T10:42:14.136Z,93628.19
2022-09-17T10:43:19.251Z,93624.97
2022-09-17T10:44:22.944Z,93633.00
2022-09-17T10:45:25.699Z,93633.28
2022-09-17T10:46:31.194Z,93626.97
2022-09-17T10:47:37.206Z,93624.13
2022-09-17T10:48:42.733Z,93628.09
2022-09-17T10:49:47.915Z,93632.75
2022-09-17T10:50:50.775Z,93636.34
2022-09-17T10:51:52.284Z,93628.72
2022-09-17T10:52:56.224Z,93639.91
2022-09-17T10:54:19.756Z,93637.53
2022-09-17T10:55:30.385Z,93637.34
2022-09-17T10:56:35.460Z,93639.59
2022-09-17T10:58:03.006Z,93635.66
2022-09-17T10:59:26.588Z,93637.84
2022-09-17T11:00:33.661Z,93632.88
2022-09-17T11:01:47.958Z,93627.50
2022-09-17T11:03:22.007Z,93624.69
2022-09-17T11:04:33.672Z,93618.16
2022-09-17T11:05:50.402Z,93618.56
2022-09-17T11:07:17.639Z,93617.41
2022-09-17T11:08:26.187Z,93620.19
2022-09-17T11:09:36.860Z,93616.13
2022-09-17T11:10:44.891Z,93619.75
2022-09-17T11:12:00.799Z,93613.09
2022-09-17T11:13:17.766Z,93615.31
2022-09-17T11:14:35.116Z,93622.97
2022-09-17T11:15:55.992Z,93613.16
2022-09-17T11:17:07.447Z,93618.78
2022-09-17T11:18:20.345Z,93625.66
2022-09-17T11:19:32.335Z,93623.66
2022-09-17T11:20:50.303Z,93616.72
2022-09-17T11:22:01.416Z,93618.34
2022-09-17T11:23:17.947Z,93620.50
2022-09-17T11:24:49.176Z,93621.59
2022-09-17T11:26:00.260Z,93619.41
2022-09-17T11:27:11.957Z,93617.66
2022-09-17T11:28:32.058Z,93618.56
2022-09-17T11:29:48.998Z,93621.25
2022-09-17T11:31:02.840Z,93626.06
2022-09-17T11:32:13.719Z,93621.69
2022-09-17T11:33:44.971Z,93617.47
2022-09-17T11:34:53.926Z,93624.19
2022-09-17T11:35:59.509Z,93623.81
2022-09-17T11:37:09.304Z,93618.50
2022-09-17T11:38:16.021Z,93632.75
2022-09-17T11:39:22.827Z,93619.63
2022-09-17T11:40:28.222Z,93625.44
2022-09-17T11:41:34.377Z,93629.97
2022-09-17T11:42:41.664Z,93622.00
2022-09-17T11:43:47.207Z,93623.28
2022-09-17T11:44:53.368Z,93614.38
2022-09-17T11:46:02.579Z,93616.84
2022-09-17T11:47:10.382Z,93617.44
2022-09-17T11:48:16.791Z,93611.19
2022-09-17T11:49:28.280Z,93608.25
2022-09-17T11:50:35.024Z,93620.03
2022-09-17T11:51:41.346Z,93607.03
2022-09-17T11:52:45.657Z,93604.69
2022-09-17T11:53:52.163Z,93604.13
2022-09-17T11:55:00.021Z,93598.59
2022-09-17T11:56:05.672Z,93605.50
2022-09-17T11:57:13.744Z,93595.44
2022-09-17T11:58:25.421Z,93591.56
2022-09-17T11:59:34.973Z,93592.66
2022-09-17T12:00:44.590Z,93605.69
2022-09-17T12:01:52.160Z,93592.91
2022-09-17T12:03:00.118Z,93595.03
2022-09-17T12:04:15.374Z,93600.31
2022-09-17T12:05:20.705Z,93587.63
2022-09-17T12:06:44.752Z,93592.09
2022-09-17T12:07:52.727Z,93590.72
2022-09-17T12:09:00.776Z,93587.94
2022-09-17T12:10:18.476Z,93588.97
2022-09-17T12:11:23.116Z,93597.78
2022-09-17T12:12:47.620Z,93586.00
2022-09-17T12:13:51.746Z,93592.06
2022-09-17T12:14:56.951Z,93592.53
2022-09-17T12:16:08.191Z,93599.53
2022-09-17T12:17:12.420Z,93586.94
2022-09-17T12:18:32.363Z,93595.59
2022-09-17T12:19:40.243Z,93589.56
2022-09-17T12:20:47.709Z,93600.88
2022-09-17T12:21:51.554Z,93594.28
2022-09-17T12:22:55.515Z,93599.72
2022-09-17T12:24:03.397Z,93594.63
2022-09-17T12:25:05.881Z,93594.16
2022-09-17T12:26:20.926Z,93588.31
2022-09-17T12:27:34.659Z,93585.34
2022-09-17T12:28:43.881Z,93592.63
2022-09-17T12:30:03.472Z,93590.59
2022-09-17T12:31:14.336Z,93576.34
2022-09-17T12:32:41.668Z,93578.81
2022-09-17T12:33:51.025Z,93579.28
2022-09-17T12:34:58.291Z,93580.06
2022-09-17T12:36:28.307Z,93561.97
2022-09-17T12:37:40.648Z,93562.69
2022-09-17T12:39:08.883Z,93565.72
2022-09-17T12:40:21.601Z,93561.16
2022-09-17T12:41:31.122Z,93564.38
2022-09-17T12:42:56.720Z,93559.69
2022-09-17T12:44:15.502Z,93576.03
2022-09-17T12:45:41.460Z,93587.72
2022-09-17T12:46:55.987Z,93586.59
2022-09-17T12:48:10.130Z,93595.72
2022-09-17T12:49:32.560Z,93599.00
2022-09-17T12:50:47.285Z,93591.75
2022-09-17T12:52:01.223Z,93590.16
2022-09-17T12:53:22.010Z,93580.13